Saint Rocks, Vermont
Current Conditions -  °F | °C
As of 12:55 PM on Friday 24 Oct 2014 (Local Time) from KFSO Reporting Station
Overcast Overcast  
Wind Chill: 40°   Ceiling: 2300
Heat Index: 46°   Visibility: 10mi
Dew Point: 38°   Wind: 12mph
Humidity: 75%   Direction: 360°N
Pressure: 29.84"   Gusts: 16mph
Location:  44.8776°N, 72.9201°W
Report Text: KFSO 241655Z AUTO 36010G14KT 10SM OVC023 08/04 A2984 RMK AO2 T00770036
Loading
Personal Weather Stations






























Interactive Weather Map
Tropical Storm Tracking
New forecast layout! Learn more

10-Day Weather Forecast

Advertisements
Track Severe Weather on mobile